Time;durP1;ratioP1;P1;durP2;ratioP2;P2;SDS_P1;SDS_P2;PMS_P1;PMS_P2;Temp;Humidity;BMP_temperature;BMP_pressure;BME280_temperature;BME280_humidity;BME280_pressure;Samples;Min_cycle;Max_cycle;Signal;HPM_P1;HPM_P2
2023/06/28 00:00:05;;;;;;;3.80;1.70;;;;;;;13.08;69.22;96478.81;112031;1244;56409;-81
2023/06/28 00:02:36;;;;;;;4.40;1.50;;;;;;;13.06;69.24;96480.08;112098;1244;25231;-81
2023/06/28 00:05:08;;;;;;;4.70;1.70;;;;;;;13.04;69.22;96480.81;112105;1241;22498;-81
2023/06/28 00:07:39;;;;;;;4.40;1.90;;;;;;;13.01;69.21;96487.96;112140;1244;24084;-81
2023/06/28 00:10:12;;;;;;;2.80;1.60;;;;;;;12.99;69.25;96491.20;112027;1244;73847;-81
2023/06/28 00:12:40;;;;;;;2.60;1.40;;;;;;;12.98;69.27;96493.98;112119;1244;22505;-81
2023/06/28 00:15:11;;;;;;;2.00;1.40;;;;;;;12.97;69.30;96495.55;111865;1244;22528;-81
2023/06/28 00:17:39;;;;;;;5.50;2.00;;;;;;;12.96;69.35;96499.56;112089;1242;24179;-81
2023/06/28 00:20:10;;;;;;;3.10;1.60;;;;;;;12.97;69.43;96499.76;112037;1244;71783;-81
2023/06/28 00:22:49;;;;;;;2.90;1.60;;;;;;;12.97;69.41;96504.55;112076;1244;22491;-80
2023/06/28 00:25:18;;;;;;;2.90;1.50;;;;;;;12.95;69.39;96501.06;112102;1244;22490;-81
2023/06/28 00:27:49;;;;;;;3.40;1.80;;;;;;;12.95;69.50;96495.58;112128;1244;22559;-81
2023/06/28 00:30:20;;;;;;;2.50;1.50;;;;;;;12.97;69.61;96494.34;112043;1244;43764;-81
2023/06/28 00:32:52;;;;;;;2.80;1.80;;;;;;;12.99;69.64;96495.20;112109;1244;25228;-81
2023/06/28 00:35:21;;;;;;;3.80;1.60;;;;;;;12.97;69.52;96498.16;112094;1244;22511;-81
2023/06/28 00:37:51;;;;;;;3.80;1.40;;;;;;;12.96;69.49;96499.98;111830;1244;22704;-80
2023/06/28 00:40:23;;;;;;;2.90;1.50;;;;;;;12.93;69.51;96496.56;112028;1244;56184;-81
2023/06/28 00:42:52;;;;;;;4.70;1.90;;;;;;;12.94;69.58;96498.25;112122;1244;22627;-81
2023/06/28 00:45:21;;;;;;;2.20;1.40;;;;;;;12.96;69.67;96498.17;112098;1244;22515;-80
2023/06/28 00:47:50;;;;;;;3.60;1.50;;;;;;;13.00;69.74;96500.44;112084;1244;22508;-81
2023/06/28 00:50:20;;;;;;;2.50;1.50;;;;;;;13.04;70.00;96499.72;112056;1244;66559;-81
2023/06/28 00:52:52;;;;;;;2.00;1.40;;;;;;;13.06;69.83;96496.58;112096;1244;22574;-81
2023/06/28 00:55:22;;;;;;;3.20;1.40;;;;;;;13.09;69.93;96499.63;112096;1244;22507;-80
2023/06/28 00:57:51;;;;;;;2.40;1.20;;;;;;;13.11;69.91;96496.77;112079;1243;22514;-81
2023/06/28 01:00:21;;;;;;;3.10;1.10;;;;;;;13.13;70.03;96496.20;112004;1244;109919;-81
2023/06/28 01:02:51;;;;;;;2.90;1.30;;;;;;;13.16;69.99;96496.57;112143;1244;22541;-81
2023/06/28 01:05:22;;;;;;;3.10;1.30;;;;;;;13.19;70.03;96501.48;112133;1244;25222;-81
2023/06/28 01:07:52;;;;;;;3.00;1.10;;;;;;;13.22;70.19;96502.78;112107;1244;25443;-80
2023/06/28 01:10:23;;;;;;;4.10;1.40;;;;;;;13.22;69.96;96498.53;112048;1244;49246;-80
2023/06/28 01:12:54;;;;;;;2.10;1.20;;;;;;;13.22;69.99;96498.42;112115;1244;22500;-81
2023/06/28 01:15:23;;;;;;;3.50;1.20;;;;;;;13.22;69.99;96497.09;112073;1244;22691;-80
2023/06/28 01:17:55;;;;;;;3.20;1.70;;;;;;;13.22;69.88;96495.77;112103;1240;24195;-81
2023/06/28 01:20:23;;;;;;;2.60;1.20;;;;;;;13.23;70.06;96495.80;112078;1244;41764;-80
2023/06/28 01:22:55;;;;;;;3.30;1.30;;;;;;;13.24;70.09;96493.51;112111;1244;25232;-81
2023/06/28 01:25:24;;;;;;;4.80;1.60;;;;;;;13.22;70.00;96497.19;112145;1244;22552;-80
2023/06/28 01:27:55;;;;;;;2.20;1.30;;;;;;;13.21;70.07;96496.20;111857;1244;22520;-81
2023/06/28 01:30:25;;;;;;;2.50;1.40;;;;;;;13.20;70.03;96495.22;112070;1244;44931;-81
2023/06/28 01:32:54;;;;;;;1.60;1.20;;;;;;;13.20;70.22;96493.25;111870;1244;22528;-80
2023/06/28 01:35:25;;;;;;;1.90;1.30;;;;;;;13.22;70.21;96488.48;112076;1244;22506;-80
2023/06/28 01:37:54;;;;;;;3.70;1.80;;;;;;;13.21;70.25;96486.25;112070;1240;25219;-80
2023/06/28 01:40:23;;;;;;;2.80;1.40;;;;;;;13.20;70.20;96487.77;112064;1244;64124;-81
2023/06/28 01:42:52;;;;;;;2.40;1.30;;;;;;;13.20;70.32;96486.07;112085;1244;25323;-81
2023/06/28 01:45:25;;;;;;;3.70;1.30;;;;;;;13.20;70.25;96489.24;112092;1244;25244;-80
2023/06/28 01:48:02;;;;;;;4.60;1.40;;;;;;;13.20;70.31;96488.52;112095;1244;22503;-80
2023/06/28 01:50:32;;;;;;;2.90;1.30;;;;;;;13.19;70.41;96487.26;112048;1244;54311;-81
2023/06/28 01:53:02;;;;;;;2.50;1.10;;;;;;;13.17;70.40;96487.54;112075;1240;25219;-80
2023/06/28 01:55:33;;;;;;;1.90;1.20;;;;;;;13.16;70.41;96484.95;112082;1244;22520;-80
2023/06/28 01:58:03;;;;;;;2.00;1.20;;;;;;;13.13;70.43;96485.64;112061;1244;22492;-80
2023/06/28 02:00:32;;;;;;;5.10;1.90;;;;;;;13.12;70.55;96485.73;112053;1244;46618;-80
2023/06/28 02:03:01;;;;;;;3.20;1.60;;;;;;;13.10;70.51;96488.53;112094;1244;23814;-80
2023/06/28 02:05:30;;;;;;;;;;;;;;;13.07;70.52;96482.25;112137;1244;22569;-80
2023/06/28 02:08:02;;;;;;;2.10;1.20;;;;;;;13.02;70.57;96482.92;112135;1244;23818;-80
2023/06/28 02:10:34;;;;;;;4.10;1.40;;;;;;;13.02;70.74;96477.41;112073;1244;58200;-81
2023/06/28 02:13:03;;;;;;;3.50;1.60;;;;;;;13.01;70.83;96475.67;112088;1244;24245;-80
2023/06/28 02:15:32;;;;;;;2.60;1.40;;;;;;;12.99;70.86;96475.98;112095;1244;22629;-80
2023/06/28 02:18:02;;;;;;;2.50;1.40;;;;;;;13.00;70.93;96474.58;112082;1244;22547;-80
2023/06/28 02:20:31;;;;;;;1.80;1.30;;;;;;;13.00;71.03;96475.73;112063;1244;45326;-80
2023/06/28 02:22:59;;;;;;;4.10;1.70;;;;;;;12.99;71.06;96478.48;112074;1244;25434;-80
2023/06/28 02:25:28;;;;;;;1.50;1.40;;;;;;;12.99;71.22;96476.73;112100;1230;22462;-80
2023/06/28 02:27:57;;;;;;;3.10;1.70;;;;;;;13.03;71.35;96477.33;112086;1244;22537;-80
2023/06/28 02:30:26;;;;;;;1.70;1.10;;;;;;;13.02;71.30;96474.91;112056;1244;58341;-80
2023/06/28 02:32:55;;;;;;;2.90;1.10;;;;;;;13.01;71.26;96480.98;112077;1244;22470;-80
2023/06/28 02:35:23;;;;;;;2.80;1.20;;;;;;;13.00;71.35;96481.23;112101;1244;25355;-80
2023/06/28 02:37:54;;;;;;;3.00;1.60;;;;;;;13.02;71.35;96482.84;112077;1244;22549;-80
2023/06/28 02:40:24;;;;;;;1.60;1.10;;;;;;;13.03;71.28;96482.11;112011;1244;121592;-80
2023/06/28 02:42:53;;;;;;;2.40;1.30;;;;;;;13.03;70.99;96477.48;112082;1244;23224;-80
2023/06/28 02:45:22;;;;;;;4.30;1.40;;;;;;;13.04;71.18;96483.73;112086;1240;22556;-80
2023/06/28 02:47:51;;;;;;;2.80;2.00;;;;;;;13.06;71.17;96480.02;112079;1244;22777;-80
2023/06/28 02:50:20;;;;;;;1.90;1.30;;;;;;;13.07;71.05;96480.50;112024;1244;54804;-80
2023/06/28 02:52:52;;;;;;;3.10;1.50;;;;;;;13.07;71.04;96479.22;112075;1244;22685;-80
2023/06/28 02:55:21;;;;;;;2.60;1.20;;;;;;;13.08;71.18;96481.42;112101;1244;22512;-80
2023/06/28 02:57:55;;;;;;;2.00;1.00;;;;;;;13.09;71.28;96479.55;111878;1244;22529;-80
2023/06/28 03:00:24;;;;;;;2.20;1.10;;;;;;;13.08;71.25;96482.86;112022;1244;59199;-80
2023/06/28 03:02:53;;;;;;;3.30;1.40;;;;;;;13.06;71.32;96485.61;112099;1244;22527;-80
2023/06/28 03:05:23;;;;;;;2.90;1.30;;;;;;;13.05;71.32;96487.34;112079;1244;22513;-80
2023/06/28 03:07:53;;;;;;;4.20;1.40;;;;;;;13.03;71.41;96485.69;112064;1244;22553;-80
2023/06/28 03:10:22;;;;;;;3.80;1.40;;;;;;;13.02;71.45;96482.98;112029;1244;40157;-80
2023/06/28 03:12:51;;;;;;;3.30;1.40;;;;;;;13.03;71.48;96485.25;112095;1244;22511;-80
2023/06/28 03:15:20;;;;;;;1.70;1.30;;;;;;;13.05;71.59;96486.17;112072;1244;24040;-80
2023/06/28 03:17:49;;;;;;;4.70;1.20;;;;;;;13.05;71.51;96483.52;112092;1244;22513;-80
2023/06/28 03:20:20;;;;;;;5.20;1.70;;;;;;;13.03;71.43;96482.59;112060;1244;43658;-80
2023/06/28 03:22:50;;;;;;;1.40;1.00;;;;;;;13.02;71.53;96480.48;112090;1244;25366;-80
2023/06/28 03:25:22;;;;;;;4.40;1.30;;;;;;;13.04;71.60;96477.84;112066;1244;22745;-80
2023/06/28 03:27:50;;;;;;;3.20;1.20;;;;;;;13.05;71.50;96474.88;112081;1244;24370;-80
2023/06/28 03:30:19;;;;;;;5.10;1.40;;;;;;;13.06;71.46;96470.13;112026;1244;31822;-80
2023/06/28 03:32:48;;;;;;;2.50;1.30;;;;;;;13.08;71.56;96470.52;112088;1244;23228;-80
2023/06/28 03:35:17;;;;;;;2.10;1.30;;;;;;;13.10;71.41;96467.57;112073;1244;22524;-80
2023/06/28 03:37:51;;;;;;;3.40;1.40;;;;;;;13.11;71.44;96469.63;112083;1243;22488;-80
2023/06/28 03:40:22;;;;;;;4.70;1.30;;;;;;;13.13;71.55;96471.39;112010;1244;58701;-80
2023/06/28 03:42:52;;;;;;;2.80;1.20;;;;;;;13.14;71.37;96471.56;112063;1244;22513;-80
2023/06/28 03:45:21;;;;;;;2.60;1.20;;;;;;;13.14;71.40;96473.23;112050;1244;22520;-80
2023/06/28 03:47:53;;;;;;;3.00;1.30;;;;;;;13.15;71.34;96471.45;112068;1244;22514;-80
2023/06/28 03:50:22;;;;;;;2.80;1.30;;;;;;;13.15;71.19;96471.35;112050;1244;54752;-80
2023/06/28 03:52:52;;;;;;;2.90;1.10;;;;;;;13.16;71.42;96471.20;112064;1244;24924;-81
2023/06/28 03:55:21;;;;;;;2.70;1.20;;;;;;;13.17;71.19;96471.63;111869;1244;22518;-80
2023/06/28 03:57:50;;;;;;;2.80;1.20;;;;;;;13.19;71.24;96473.89;112080;1244;25247;-80
2023/06/28 04:00:19;;;;;;;;;;;;;;;13.20;71.35;96475.77;112075;1244;48372;-80
2023/06/28 04:02:48;;;;;;;2.50;1.20;;;;;;;13.21;71.43;96476.66;112097;1244;22985;-80
2023/06/28 04:05:17;;;;;;;2.70;1.30;;;;;;;13.22;71.35;96477.98;112107;1244;25221;-80
2023/06/28 04:07:57;;;;;;;;;;;;;;;13.24;71.46;96473.42;112077;1244;22461;-80
2023/06/28 04:10:26;;;;;;;2.50;1.40;;;;;;;13.26;71.29;96475.95;112018;1244;74262;-80
2023/06/28 04:12:55;;;;;;;2.40;1.20;;;;;;;13.27;71.31;96478.74;112033;1244;22508;-81
2023/06/28 04:15:25;;;;;;;2.30;1.80;;;;;;;13.29;71.31;96481.52;112105;1241;22547;-81
2023/06/28 04:17:54;;;;;;;1.60;1.30;;;;;;;13.32;71.47;96482.77;112054;1244;22528;-81
2023/06/28 04:20:23;;;;;;;2.90;1.20;;;;;;;13.37;71.45;96480.18;112032;1244;69511;-80
2023/06/28 04:22:54;;;;;;;2.60;1.20;;;;;;;13.40;71.30;96479.05;112066;1244;22503;-80
2023/06/28 04:25:27;;;;;;;3.60;1.50;;;;;;;13.42;71.13;96476.83;112039;1244;22511;-80
2023/06/28 04:27:56;;;;;;;4.60;1.50;;;;;;;13.42;71.00;96480.45;112085;1244;22517;-80
2023/06/28 04:30:25;;;;;;;2.50;1.10;;;;;;;13.38;70.95;96481.02;112042;1241;39721;-81
2023/06/28 04:32:55;;;;;;;3.70;1.40;;;;;;;13.38;71.01;96482.30;112056;1244;22473;-80
2023/06/28 04:35:23;;;;;;;;;;;;;;;13.42;71.13;96473.79;112080;1244;25257;-80
2023/06/28 04:37:51;;;;;;;2.60;1.40;;;;;;;13.46;71.16;96473.90;111879;1244;22515;-80
2023/06/28 04:40:20;;;;;;;2.30;0.90;;;;;;;13.52;71.22;96474.00;112023;1244;51101;-81
2023/06/28 04:42:50;;;;;;;1.80;1.00;;;;;;;13.56;71.20;96472.95;111963;1244;22501;-80
2023/06/28 04:45:20;;;;;;;1.80;1.40;;;;;;;13.62;71.28;96474.89;112068;1244;22523;-80
2023/06/28 04:47:49;;;;;;;2.00;1.20;;;;;;;13.64;71.15;96470.20;112092;1244;22519;-80
2023/06/28 04:50:19;;;;;;;2.00;1.10;;;;;;;13.68;71.09;96472.27;111994;1244;73104;-81
2023/06/28 04:52:48;;;;;;;3.20;1.10;;;;;;;13.72;71.10;96472.02;112038;1244;22533;-80
2023/06/28 04:55:17;;;;;;;2.20;1.00;;;;;;;13.81;71.13;96470.86;112064;1244;22506;-81
2023/06/28 04:57:45;;;;;;;2.30;1.10;;;;;;;13.90;71.18;96470.42;112083;1244;22512;-80
2023/06/28 05:00:18;;;;;;;2.00;1.10;;;;;;;14.04;71.47;96471.84;111982;1244;140852;-81
2023/06/28 05:02:50;;;;;;;2.40;1.10;;;;;;;14.15;70.99;96469.81;112074;1244;23370;-81
2023/06/28 05:05:19;;;;;;;2.70;1.10;;;;;;;14.23;70.97;96470.43;112062;1244;22592;-81
2023/06/28 05:07:48;;;;;;;4.60;1.50;;;;;;;14.28;70.92;96474.20;112068;1244;22544;-80
2023/06/28 05:10:16;;;;;;;;;;;;;;;14.33;70.85;96476.03;112013;1244;69913;-80
2023/06/28 05:12:45;;;;;;;3.60;1.30;;;;;;;14.46;71.12;96477.39;112051;1244;22591;-81
2023/06/28 05:15:14;;;;;;;2.20;1.10;;;;;;;14.51;70.30;96467.98;112083;1244;22474;-81
2023/06/28 05:17:44;;;;;;;4.60;1.70;;;;;;;14.48;70.19;96471.68;112057;1244;22534;-81
2023/06/28 05:20:13;;;;;;;4.00;1.20;;;;;;;14.55;70.02;96477.86;112034;1244;30940;-80
2023/06/28 05:22:44;;;;;;;2.10;1.20;;;;;;;14.63;69.82;96475.72;112046;1244;22510;-80
2023/06/28 05:25:14;;;;;;;2.90;1.30;;;;;;;14.75;70.21;96479.80;112064;1244;22697;-81
2023/06/28 05:27:45;;;;;;;3.60;1.00;;;;;;;15.35;70.43;96482.39;112052;1244;25416;-80
2023/06/28 05:30:17;;;;;;;3.00;1.30;;;;;;;15.86;69.55;96474.42;112032;1244;36516;-81
2023/06/28 05:32:46;;;;;;;2.60;1.10;;;;;;;16.35;69.08;96468.13;112074;1244;22511;-80
2023/06/28 05:35:15;;;;;;;2.40;1.00;;;;;;;17.54;68.72;96469.11;112053;1228;22521;-81
2023/06/28 05:37:47;;;;;;;2.50;1.00;;;;;;;18.43;66.67;96470.36;112025;1244;22505;-81
2023/06/28 05:40:16;;;;;;;1.20;1.00;;;;;;;18.92;65.49;96467.79;111826;1244;101564;-81
2023/06/28 05:42:45;;;;;;;2.90;1.20;;;;;;;19.24;64.12;96471.93;112083;1244;22509;-81
2023/06/28 05:45:14;;;;;;;1.50;0.90;;;;;;;19.37;63.19;96475.80;112062;1244;23139;-81
2023/06/28 05:47:44;;;;;;;;;;;;;;;19.19;61.44;96470.86;112067;1244;22519;-81
2023/06/28 05:50:15;;;;;;;1.50;1.20;;;;;;;18.89;61.56;96463.92;110481;1244;2045546;-81
2023/06/28 05:52:45;;;;;;;4.10;1.00;;;;;;;18.83;61.25;96467.20;112030;1244;22486;-81
2023/06/28 05:55:14;;;;;;;1.80;0.90;;;;;;;18.49;60.29;96464.98;112053;1244;22541;-81
2023/06/28 05:57:43;;;;;;;2.90;1.10;;;;;;;18.21;60.01;96463.77;112074;1244;24261;-81
2023/06/28 06:00:20;;;;;;;2.20;1.00;;;;;;;17.65;60.17;96463.50;111972;1244;92367;-81
2023/06/28 06:02:51;;;;;;;1.70;1.10;;;;;;;17.22;60.77;96466.23;112038;1244;22524;-81
2023/06/28 06:05:21;;;;;;;3.90;1.30;;;;;;;17.01;60.90;96465.33;112053;1243;22526;-80
2023/06/28 06:07:50;;;;;;;1.20;0.80;;;;;;;16.74;61.29;96468.05;112084;1244;22677;-81
2023/06/28 06:10:21;;;;;;;4.60;1.10;;;;;;;17.07;62.29;96466.20;111854;1244;73578;-81
2023/06/28 06:12:50;;;;;;;4.30;1.40;;;;;;;17.81;62.26;96468.78;112062;1244;22691;-81
2023/06/28 06:15:19;;;;;;;2.90;1.40;;;;;;;17.99;61.09;96462.01;112068;1241;24256;-82
2023/06/28 06:17:50;;;;;;;2.30;1.10;;;;;;;17.72;60.14;96458.95;112039;1244;22633;-81
2023/06/28 06:20:22;;;;;;;2.10;1.10;;;;;;;17.60;60.91;96462.92;112034;1241;26434;-82
2023/06/28 06:22:51;;;;;;;2.70;1.10;;;;;;;17.85;60.10;96467.70;112065;1244;22514;-82
2023/06/28 06:25:20;;;;;;;3.70;1.20;;;;;;;17.81;60.23;96460.11;112013;1244;22561;-81
2023/06/28 06:27:51;;;;;;;1.30;1.00;;;;;;;17.55;59.58;96463.69;112036;1244;22485;-82
2023/06/28 06:30:25;;;;;;;2.50;1.10;;;;;;;17.70;60.62;96460.77;112001;1244;40811;-82
2023/06/28 06:32:59;;;;;;;3.30;1.30;;;;;;;18.94;60.74;96458.23;112039;1244;22519;-84
2023/06/28 06:35:31;;;;;;;1.70;0.80;;;;;;;19.18;58.19;96464.23;112052;1244;22585;-82
2023/06/28 06:38:00;;;;;;;2.20;1.00;;;;;;;18.81;58.17;96457.52;112038;1244;22555;-82
2023/06/28 06:40:30;;;;;;;2.60;0.90;;;;;;;18.85;58.74;96462.41;111999;1244;36274;-83
2023/06/28 06:43:01;;;;;;;4.60;1.10;;;;;;;18.94;58.50;96460.34;112032;1244;22456;-82
2023/06/28 06:45:30;;;;;;;2.90;1.20;;;;;;;19.10;58.79;96460.06;112050;1244;22556;-83
2023/06/28 06:48:03;;;;;;;2.20;1.10;;;;;;;19.19;58.11;96463.96;112026;1244;26562;-83
2023/06/28 06:50:32;;;;;;;2.40;1.00;;;;;;;18.52;57.03;96464.99;111980;1244;51787;-82
2023/06/28 06:53:02;;;;;;;2.30;1.10;;;;;;;17.80;57.91;96467.36;112009;1239;22530;-83
2023/06/28 06:55:33;;;;;;;4.20;1.10;;;;;;;18.05;58.97;96461.59;111911;1244;22956;-82
2023/06/28 06:58:05;;;;;;;1.60;0.80;;;;;;;18.31;59.44;96457.23;112031;1244;22543;-83
2023/06/28 07:00:38;;;;;;;3.40;1.10;;;;;;;18.58;58.54;96460.74;111993;1244;45697;-82
2023/06/28 07:03:08;;;;;;;2.90;1.30;;;;;;;18.04;57.73;96463.55;112011;1244;24212;-82
2023/06/28 07:05:37;;;;;;;3.50;1.10;;;;;;;17.56;58.56;96465.25;111905;1244;24297;-82
2023/06/28 07:08:07;;;;;;;2.00;1.00;;;;;;;17.40;59.04;96466.40;112051;1244;22535;-83
2023/06/28 07:10:36;;;;;;;2.50;0.90;;;;;;;17.16;59.28;96465.56;112010;1242;52738;-83
2023/06/28 07:13:05;;;;;;;7.10;1.20;;;;;;;17.14;59.59;96465.79;112037;1244;22734;-82
2023/06/28 07:15:34;;;;;;;3.90;1.20;;;;;;;17.17;59.82;96465.91;112019;1244;22571;-83
2023/06/28 07:18:04;;;;;;;2.20;0.90;;;;;;;17.12;59.68;96466.25;112034;1244;22515;-83
2023/06/28 07:20:34;;;;;;;2.70;1.20;;;;;;;16.94;59.92;96463.15;111995;1244;53070;-82
2023/06/28 07:23:03;;;;;;;2.80;1.20;;;;;;;16.86;60.30;96465.89;112018;1244;22508;-83
2023/06/28 07:25:34;;;;;;;2.70;1.30;;;;;;;16.88;60.69;96458.48;111890;1244;22512;-83
2023/06/28 07:28:04;;;;;;;3.90;1.30;;;;;;;17.03;60.96;96457.16;112029;1244;24294;-82
2023/06/28 07:30:51;;;;;;;;;;;;;;;17.24;61.24;96460.57;111993;1244;44499;-82
2023/06/28 07:33:21;;;;;;;2.40;1.20;;;;;;;17.42;61.07;96454.50;111893;1244;22531;-82
2023/06/28 07:35:53;;;;;;;3.50;1.30;;;;;;;17.62;61.33;96454.17;112030;1244;22499;-83
2023/06/28 07:38:26;;;;;;;3.00;1.10;;;;;;;17.53;60.10;96447.12;111991;1243;22512;-83
2023/06/28 07:41:01;;;;;;;3.10;1.30;;;;;;;17.41;60.21;96448.80;111966;1244;52269;-83
2023/06/28 07:43:32;;;;;;;2.20;1.20;;;;;;;17.63;60.28;96452.30;112046;1244;25224;-82
2023/06/28 07:46:04;;;;;;;1.90;0.80;;;;;;;17.94;59.94;96459.15;112033;1244;25336;-83
2023/06/28 07:48:37;;;;;;;1.90;0.90;;;;;;;18.17;59.36;96457.05;111980;1244;22558;-83
2023/06/28 07:51:07;;;;;;;2.30;0.90;;;;;;;17.91;58.16;96457.58;111959;1244;36727;-83
2023/06/28 07:53:36;;;;;;;1.10;0.70;;;;;;;17.66;58.31;96462.08;111990;1244;22511;-83
2023/06/28 07:56:07;;;;;;;2.70;1.10;;;;;;;17.95;58.17;96458.16;112012;1244;22531;-82
2023/06/28 07:58:38;;;;;;;1.20;0.80;;;;;;;18.17;57.84;96455.27;112003;1244;22548;-83
2023/06/28 08:01:06;;;;;;;1.80;0.80;;;;;;;18.32;57.36;96460.56;111960;1244;63753;-83
2023/06/28 08:03:36;;;;;;;1.00;0.50;;;;;;;18.59;57.38;96459.32;112041;1244;22501;-83
2023/06/28 08:06:08;;;;;;;1.30;1.00;;;;;;;19.07;57.49;96460.66;111989;1244;22554;-83
2023/06/28 08:08:41;;;;;;;1.60;0.70;;;;;;;19.45;56.56;96462.27;112010;1244;22498;-83
2023/06/28 08:11:10;;;;;;;2.70;0.70;;;;;;;19.67;56.21;96455.97;111974;1240;50515;-83
2023/06/28 08:13:38;;;;;;;1.10;0.60;;;;;;;19.94;56.42;96454.81;112015;1240;22471;-83
2023/06/28 08:16:08;;;;;;;1.80;0.80;;;;;;;20.21;56.46;96454.64;112004;1244;22491;-83
2023/06/28 08:18:37;;;;;;;1.50;0.80;;;;;;;20.41;56.13;96451.56;111998;1244;22502;-84
2023/06/28 08:21:06;;;;;;;1.30;0.70;;;;;;;20.35;55.25;96448.77;111781;1238;236908;-83
2023/06/28 08:23:36;;;;;;;1.50;0.90;;;;;;;20.32;55.71;96445.91;112001;1241;22514;-84
2023/06/28 08:26:10;;;;;;;3.60;1.10;;;;;;;20.11;54.59;96443.89;112011;1244;22505;-83
2023/06/28 08:28:47;;;;;;;3.10;0.80;;;;;;;19.70;54.84;96439.45;112022;1244;22512;-83
2023/06/28 08:31:17;;;;;;;1.80;1.10;;;;;;;19.64;55.27;96433.81;111960;1244;46555;-83
2023/06/28 08:33:47;;;;;;;4.70;1.30;;;;;;;19.63;55.22;96434.56;111993;1244;22501;-83
2023/06/28 08:36:16;;;;;;;3.40;1.30;;;;;;;19.65;55.03;96429.63;112040;1244;22576;-84
2023/06/28 08:38:44;;;;;;;;;;;;;;;19.02;54.46;96443.71;112022;1244;24227;-83
2023/06/28 08:41:13;;;;;;;1.90;1.10;;;;;;;18.42;55.77;96449.06;111948;1244;50215;-83
2023/06/28 08:43:50;;;;;;;2.50;1.30;;;;;;;18.07;56.47;96449.31;112012;1244;22587;-82
2023/06/28 08:46:23;;;;;;;2.30;1.20;;;;;;;18.09;57.73;96444.11;112008;1244;22553;-83
2023/06/28 08:48:54;;;;;;;2.80;1.60;;;;;;;18.22;58.09;96442.48;111992;1244;22491;-82
2023/06/28 08:51:25;;;;;;;1.80;1.00;;;;;;;18.41;58.83;96438.45;111987;1244;99307;-82
2023/06/28 08:53:56;;;;;;;3.70;1.40;;;;;;;18.45;58.28;96427.58;112013;1244;22561;-82
2023/06/28 08:56:27;;;;;;;3.90;1.70;;;;;;;18.46;58.56;96429.89;112034;1244;22547;-82
2023/06/28 08:58:57;;;;;;;2.90;1.50;;;;;;;18.33;58.38;96430.59;112012;1244;24251;-83
2023/06/28 09:01:29;;;;;;;4.50;1.50;;;;;;;17.99;57.93;96428.89;111968;1244;57442;-82
2023/06/28 09:04:02;;;;;;;4.30;1.40;;;;;;;17.74;58.34;96431.91;112021;1244;25293;-82
2023/06/28 09:06:32;;;;;;;3.60;1.60;;;;;;;17.64;58.94;96429.63;112009;1244;22508;-82
2023/06/28 09:09:05;;;;;;;3.70;1.90;;;;;;;17.64;58.98;96428.55;112018;1244;25251;-82
2023/06/28 09:11:35;;;;;;;3.90;1.30;;;;;;;17.66;59.25;96426.23;111984;1244;61044;-82
2023/06/28 09:14:05;;;;;;;3.50;1.70;;;;;;;17.69;59.01;96422.83;111993;1244;25274;-82
2023/06/28 09:16:35;;;;;;;2.50;1.50;;;;;;;17.69;58.97;96414.42;112016;1244;22523;-83
2023/06/28 09:19:05;;;;;;;3.30;1.10;;;;;;;17.72;58.77;96412.77;111989;1244;25269;-83
2023/06/28 09:21:35;;;;;;;1.60;1.20;;;;;;;17.81;58.69;96410.27;111952;1244;64846;-83
2023/06/28 09:24:10;;;;;;;2.60;1.30;;;;;;;17.95;58.60;96408.44;112011;1239;25328;-83
2023/06/28 09:26:43;;;;;;;3.70;1.30;;;;;;;18.00;58.44;96407.68;112016;1244;22515;-83
2023/06/28 09:29:14;;;;;;;3.60;1.40;;;;;;;18.09;58.93;96416.06;112000;1244;22579;-83
2023/06/28 09:31:46;;;;;;;4.60;1.50;;;;;;;18.08;58.39;96408.27;110620;1244;1776905;-83
2023/06/28 09:34:24;;;;;;;3.60;1.60;;;;;;;17.86;57.85;96407.30;112009;1244;22508;-82
2023/06/28 09:36:57;;;;;;;2.60;1.10;;;;;;;17.84;57.82;96405.75;112027;1244;22501;-83
2023/06/28 09:39:35;;;;;;;3.20;1.30;;;;;;;17.71;57.27;96402.91;111914;1244;24544;-83
2023/06/28 09:42:05;;;;;;;9.60;1.50;;;;;;;17.62;57.52;96395.52;112025;1244;22490;-82
2023/06/28 09:44:34;;;;;;;3.20;1.20;;;;;;;17.62;57.81;96395.52;112031;1244;22526;-82
2023/06/28 09:47:04;;;;;;;2.30;1.30;;;;;;;17.67;58.28;96393.40;112022;1244;22474;-82
2023/06/28 09:49:36;;;;;;;5.10;1.30;;;;;;;17.85;58.04;96392.91;112021;1244;22501;-82
2023/06/28 09:52:10;;;;;;;4.80;1.30;;;;;;;18.03;57.56;96387.88;112037;1244;22539;-82
2023/06/28 09:54:45;;;;;;;3.40;1.20;;;;;;;17.99;56.85;96377.77;112035;1244;22581;-82
2023/06/28 09:57:16;;;;;;;2.00;1.00;;;;;;;18.00;56.59;96372.52;112009;1240;24191;-83
2023/06/28 09:59:48;;;;;;;2.10;1.20;;;;;;;18.11;56.96;96370.21;111959;1244;46756;-83
2023/06/28 10:02:20;;;;;;;1.50;1.00;;;;;;;18.16;56.28;96363.95;112040;1244;22847;-83
2023/06/28 10:04:53;;;;;;;3.90;1.20;;;;;;;18.16;55.38;96364.09;112035;1244;22512;-82
2023/06/28 10:07:30;;;;;;;2.20;1.10;;;;;;;18.20;55.79;96359.17;112016;1244;22531;-83
2023/06/28 10:09:59;;;;;;;2.40;1.10;;;;;;;18.38;55.52;96360.30;112003;1239;38463;-83
2023/06/28 10:12:33;;;;;;;3.40;1.40;;;;;;;18.46;55.41;96362.14;112018;1244;25431;-83
2023/06/28 10:15:09;;;;;;;3.00;1.50;;;;;;;18.61;55.51;96359.35;112032;1244;22505;-83
2023/06/28 10:17:40;;;;;;;1.70;1.40;;;;;;;18.70;55.34;96361.86;112046;1244;22503;-83
2023/06/28 10:20:11;;;;;;;3.10;1.30;;;;;;;18.64;54.63;96363.20;111987;1244;48489;-82
2023/06/28 10:22:41;;;;;;;2.80;1.20;;;;;;;18.69;54.96;96363.54;112051;1244;22533;-82
2023/06/28 10:25:12;;;;;;;4.50;1.60;;;;;;;18.83;54.93;96361.58;112030;1244;22603;-83
2023/06/28 10:27:43;;;;;;;4.70;1.40;;;;;;;18.93;54.33;96357.98;112057;1244;22512;-83
2023/06/28 10:30:14;;;;;;;4.10;1.20;;;;;;;18.85;53.81;96356.89;111920;1244;100534;-83
2023/06/28 10:32:45;;;;;;;2.70;1.20;;;;;;;18.95;53.99;96353.13;112019;1239;22502;-83
2023/06/28 10:35:14;;;;;;;2.40;1.00;;;;;;;18.98;53.47;96343.86;112030;1244;22564;-83
2023/06/28 10:37:45;;;;;;;;;;;;;;;18.94;53.06;96346.21;112056;1244;22540;-82
2023/06/28 10:40:17;;;;;;;3.90;1.10;;;;;;;18.99;52.99;96353.40;112009;1244;49288;-83
2023/06/28 10:42:48;;;;;;;2.20;1.10;;;;;;;19.00;52.77;96350.90;112052;1244;22520;-83
2023/06/28 10:45:18;;;;;;;4.20;1.40;;;;;;;18.95;52.65;96347.38;112016;1242;22511;-84
2023/06/28 10:47:56;;;;;;;3.50;1.30;;;;;;;18.98;52.26;96339.48;112051;1235;25557;-83
2023/06/28 10:50:29;;;;;;;3.00;1.20;;;;;;;18.93;52.08;96348.54;112029;1244;46539;-83
2023/06/28 10:53:00;;;;;;;2.90;1.10;;;;;;;18.88;52.13;96342.33;112036;1244;22502;-83
2023/06/28 10:55:36;;;;;;;3.10;1.50;;;;;;;18.88;52.01;96343.80;112022;1244;22548;-83
2023/06/28 10:58:10;;;;;;;2.60;1.00;;;;;;;18.82;51.59;96344.83;112018;1236;22498;-83
2023/06/28 11:00:45;;;;;;;5.40;1.70;;;;;;;18.89;51.27;96343.89;111982;1244;82051;-83
2023/06/28 11:03:14;;;;;;;1.60;1.00;;;;;;;18.99;50.39;96341.44;112076;1242;23778;-83
2023/06/28 11:05:53;;;;;;;;;;;;;;;18.95;50.24;96336.71;112049;1244;22527;-84
2023/06/28 11:08:38;;;;;;;3.40;1.20;;;;;;;18.73;49.74;96345.40;112030;1244;22511;-85
2023/06/28 11:11:10;;;;;;;4.10;1.30;;;;;;;18.55;49.92;96355.02;111981;1244;41770;-83
2023/06/28 11:13:48;;;;;;;3.20;1.30;;;;;;;18.36;50.04;96360.23;112031;1244;22515;-83
2023/06/28 11:16:25;;;;;;;4.50;1.20;;;;;;;18.31;50.70;96367.67;112025;1244;22688;-82
2023/06/28 11:18:54;;;;;;;2.10;1.20;;;;;;;18.29;50.96;96375.48;112007;1244;22516;-82
2023/06/28 11:21:25;;;;;;;4.10;1.30;;;;;;;18.22;50.82;96390.59;111985;1244;57451;-83
2023/06/28 11:23:57;;;;;;;3.10;1.30;;;;;;;18.03;50.79;96405.42;112035;1244;22600;-81
2023/06/28 11:26:38;;;;;;;3.30;1.20;;;;;;;17.82;51.61;96415.12;112041;1244;23715;-82
2023/06/28 11:29:20;;;;;;;2.40;0.90;;;;;;;17.61;52.27;96426.42;112023;1244;22511;-84
2023/06/28 11:31:52;;;;;;;3.00;1.00;;;;;;;17.35;52.52;96442.00;111995;1244;36222;-81
2023/06/28 11:34:25;;;;;;;1.90;0.90;;;;;;;17.06;52.93;96453.90;112049;1244;22588;-82
2023/06/28 11:36:56;;;;;;;4.00;0.90;;;;;;;16.95;53.58;96459.19;112046;1243;22509;-81
2023/06/28 11:39:27;;;;;;;2.30;1.00;;;;;;;16.91;54.27;96462.42;112041;1244;22583;-82
2023/06/28 11:42:05;;;;;;;2.20;0.90;;;;;;;16.89;54.12;96461.64;111948;1244;110682;-81